sensor_id;sensor_type;location;lat;lon;timestamp;pressure;altitude;pressure_sealevel;temperature;humidity
30730;BME280;17476;48.458;7.928;2022-08-01T00:00:41;100014.31;;;23.97;50.35
30730;BME280;17476;48.458;7.928;2022-08-01T00:03:06;100017.81;;;23.98;50.21
30730;BME280;17476;48.458;7.928;2022-08-01T00:05:32;100013.00;;;24.00;49.97
30730;BME280;17476;48.458;7.928;2022-08-01T00:07:59;100020.78;;;24.02;50.19
30730;BME280;17476;48.458;7.928;2022-08-01T00:10:24;100018.84;;;23.97;49.91
30730;BME280;17476;48.458;7.928;2022-08-01T00:12:51;100021.75;;;23.95;49.95
30730;BME280;17476;48.458;7.928;2022-08-01T00:15:17;100020.41;;;23.93;49.83
30730;BME280;17476;48.458;7.928;2022-08-01T00:17:44;100022.28;;;23.92;50.30
30730;BME280;17476;48.458;7.928;2022-08-01T00:20:12;100019.28;;;23.89;49.83
30730;BME280;17476;48.458;7.928;2022-08-01T00:22:39;100025.94;;;23.86;50.00
30730;BME280;17476;48.458;7.928;2022-08-01T00:25:06;100028.28;;;23.83;49.93
30730;BME280;17476;48.458;7.928;2022-08-01T00:27:32;100023.28;;;23.64;52.00
30730;BME280;17476;48.458;7.928;2022-08-01T00:29:58;100023.34;;;23.53;50.86
30730;BME280;17476;48.458;7.928;2022-08-01T00:32:24;100028.53;;;23.42;51.88
30730;BME280;17476;48.458;7.928;2022-08-01T00:34:51;100024.56;;;23.45;51.20
30730;BME280;17476;48.458;7.928;2022-08-01T00:37:17;100027.41;;;23.38;51.90
30730;BME280;17476;48.458;7.928;2022-08-01T00:39:43;100032.00;;;23.43;51.60
30730;BME280;17476;48.458;7.928;2022-08-01T00:42:11;100027.34;;;23.33;52.68
30730;BME280;17476;48.458;7.928;2022-08-01T00:44:38;100022.25;;;23.15;52.45
30730;BME280;17476;48.458;7.928;2022-08-01T00:47:05;100026.00;;;23.14;52.74
30730;BME280;17476;48.458;7.928;2022-08-01T00:49:31;100025.50;;;23.17;52.87
30730;BME280;17476;48.458;7.928;2022-08-01T00:51:57;100019.16;;;23.23;52.20
30730;BME280;17476;48.458;7.928;2022-08-01T00:54:26;100014.97;;;23.27;52.35
30730;BME280;17476;48.458;7.928;2022-08-01T00:56:53;100011.25;;;23.28;52.00
30730;BME280;17476;48.458;7.928;2022-08-01T00:59:21;100017.34;;;23.24;51.92
30730;BME280;17476;48.458;7.928;2022-08-01T01:01:48;100018.16;;;23.24;51.88
30730;BME280;17476;48.458;7.928;2022-08-01T01:04:15;100013.78;;;23.18;53.09
30730;BME280;17476;48.458;7.928;2022-08-01T01:10:25;100016.66;;;22.66;54.66
30730;BME280;17476;48.458;7.928;2022-08-01T01:15:58;100029.38;;;22.47;54.73
30730;BME280;17476;48.458;7.928;2022-08-01T01:18:35;100025.63;;;22.60;54.53
30730;BME280;17476;48.458;7.928;2022-08-01T01:24:37;100024.66;;;22.66;54.00
30730;BME280;17476;48.458;7.928;2022-08-01T01:27:15;100024.09;;;22.64;54.61
30730;BME280;17476;48.458;7.928;2022-08-01T01:29:52;100019.81;;;22.63;54.75
30730;BME280;17476;48.458;7.928;2022-08-01T01:32:35;100022.19;;;22.48;55.30
30730;BME280;17476;48.458;7.928;2022-08-01T01:35:09;100025.41;;;22.33;55.92
30730;BME280;17476;48.458;7.928;2022-08-01T01:37:39;100024.94;;;22.36;55.19
30730;BME280;17476;48.458;7.928;2022-08-01T01:40:07;100032.63;;;22.21;56.64
30730;BME280;17476;48.458;7.928;2022-08-01T01:42:36;100026.94;;;22.29;55.79
30730;BME280;17476;48.458;7.928;2022-08-01T01:45:04;100025.16;;;22.34;56.57
30730;BME280;17476;48.458;7.928;2022-08-01T01:47:32;100025.22;;;22.23;56.35
30730;BME280;17476;48.458;7.928;2022-08-01T01:50:00;100030.03;;;22.09;57.67
30730;BME280;17476;48.458;7.928;2022-08-01T01:52:28;100033.50;;;21.98;57.33
30730;BME280;17476;48.458;7.928;2022-08-01T01:54:56;100039.19;;;21.90;58.00
30730;BME280;17476;48.458;7.928;2022-08-01T01:57:23;100037.09;;;21.80;59.14
30730;BME280;17476;48.458;7.928;2022-08-01T01:59:50;100037.03;;;21.63;58.66
30730;BME280;17476;48.458;7.928;2022-08-01T02:02:19;100032.75;;;21.62;59.75
30730;BME280;17476;48.458;7.928;2022-08-01T02:04:48;100032.63;;;21.34;60.50
30730;BME280;17476;48.458;7.928;2022-08-01T02:07:23;100029.81;;;21.05;60.63
30730;BME280;17476;48.458;7.928;2022-08-01T02:09:51;100030.44;;;20.65;62.28
30730;BME280;17476;48.458;7.928;2022-08-01T02:12:19;100036.13;;;20.39;63.31
30730;BME280;17476;48.458;7.928;2022-08-01T02:14:48;100028.09;;;20.27;63.90
30730;BME280;17476;48.458;7.928;2022-08-01T02:17:17;100035.13;;;20.22;64.18
30730;BME280;17476;48.458;7.928;2022-08-01T02:19:44;100026.38;;;20.03;64.99
30730;BME280;17476;48.458;7.928;2022-08-01T02:28:01;100024.50;;;20.22;63.37
30730;BME280;17476;48.458;7.928;2022-08-01T02:30:37;100022.94;;;20.32;63.78
30730;BME280;17476;48.458;7.928;2022-08-01T02:33:27;100025.69;;;20.56;62.24
30730;BME280;17476;48.458;7.928;2022-08-01T02:35:58;100020.09;;;20.76;62.77
30730;BME280;17476;48.458;7.928;2022-08-01T02:38:30;100024.97;;;21.02;60.63
30730;BME280;17476;48.458;7.928;2022-08-01T02:41:04;100018.84;;;21.25;59.93
30730;BME280;17476;48.458;7.928;2022-08-01T02:43:33;100023.66;;;21.35;61.60
30730;BME280;17476;48.458;7.928;2022-08-01T02:46:02;100013.66;;;21.07;63.10
30730;BME280;17476;48.458;7.928;2022-08-01T02:48:30;100013.38;;;20.85;63.76
30730;BME280;17476;48.458;7.928;2022-08-01T02:51:01;100017.56;;;20.92;62.85
30730;BME280;17476;48.458;7.928;2022-08-01T02:53:32;100013.38;;;20.85;64.27
30730;BME280;17476;48.458;7.928;2022-08-01T02:56:05;100020.31;;;20.86;63.73
30730;BME280;17476;48.458;7.928;2022-08-01T02:58:33;100022.88;;;20.81;63.84
30730;BME280;17476;48.458;7.928;2022-08-01T03:01:02;100022.16;;;20.74;62.46
30730;BME280;17476;48.458;7.928;2022-08-01T03:03:29;100022.06;;;20.80;62.34
30730;BME280;17476;48.458;7.928;2022-08-01T03:05:56;100019.16;;;20.82;62.29
30730;BME280;17476;48.458;7.928;2022-08-01T03:08:24;100020.66;;;20.78;63.46
30730;BME280;17476;48.458;7.928;2022-08-01T03:10:52;100017.56;;;20.81;63.06
30730;BME280;17476;48.458;7.928;2022-08-01T03:13:21;100022.41;;;20.84;62.27
30730;BME280;17476;48.458;7.928;2022-08-01T03:15:49;100016.63;;;20.98;61.15
30730;BME280;17476;48.458;7.928;2022-08-01T03:18:16;100016.88;;;20.97;61.76
30730;BME280;17476;48.458;7.928;2022-08-01T03:20:43;100018.63;;;21.15;60.43
30730;BME280;17476;48.458;7.928;2022-08-01T03:23:11;100013.66;;;21.18;60.49
30730;BME280;17476;48.458;7.928;2022-08-01T03:25:42;100010.75;;;21.20;60.78
30730;BME280;17476;48.458;7.928;2022-08-01T03:28:13;100021.16;;;21.10;62.01
30730;BME280;17476;48.458;7.928;2022-08-01T03:30:40;100022.09;;;21.15;60.98
30730;BME280;17476;48.458;7.928;2022-08-01T03:33:08;100015.84;;;20.98;62.82
30730;BME280;17476;48.458;7.928;2022-08-01T03:35:39;100019.41;;;20.80;63.94
30730;BME280;17476;48.458;7.928;2022-08-01T03:38:09;100015.81;;;20.75;63.85
30730;BME280;17476;48.458;7.928;2022-08-01T03:40:45;100028.13;;;20.57;64.63
30730;BME280;17476;48.458;7.928;2022-08-01T03:43:38;100018.91;;;20.71;62.45
30730;BME280;17476;48.458;7.928;2022-08-01T03:46:11;100023.69;;;20.93;61.41
30730;BME280;17476;48.458;7.928;2022-08-01T03:48:47;100018.63;;;21.15;61.30
30730;BME280;17476;48.458;7.928;2022-08-01T03:51:15;100023.25;;;20.96;62.54
30730;BME280;17476;48.458;7.928;2022-08-01T03:53:45;100022.97;;;20.86;63.95
30730;BME280;17476;48.458;7.928;2022-08-01T03:56:19;100031.84;;;20.68;64.19
30730;BME280;17476;48.458;7.928;2022-08-01T03:58:53;100026.44;;;20.75;62.68
30730;BME280;17476;48.458;7.928;2022-08-01T04:01:20;100023.56;;;20.88;63.11
30730;BME280;17476;48.458;7.928;2022-08-01T04:03:53;100019.88;;;20.89;62.16
30730;BME280;17476;48.458;7.928;2022-08-01T04:06:20;100023.00;;;20.97;62.02
30730;BME280;17476;48.458;7.928;2022-08-01T04:08:46;100018.97;;;20.95;62.57
30730;BME280;17476;48.458;7.928;2022-08-01T04:11:24;100011.94;;;21.01;62.00
30730;BME280;17476;48.458;7.928;2022-08-01T04:13:52;100026.09;;;20.83;63.83
30730;BME280;17476;48.458;7.928;2022-08-01T04:16:21;100022.41;;;20.84;62.94
30730;BME280;17476;48.458;7.928;2022-08-01T04:18:48;100029.44;;;20.66;64.10
30730;BME280;17476;48.458;7.928;2022-08-01T04:21:14;100019.16;;;20.82;62.69
30730;BME280;17476;48.458;7.928;2022-08-01T04:23:44;100023.69;;;20.81;62.49
30730;BME280;17476;48.458;7.928;2022-08-01T04:26:14;100026.06;;;20.71;63.16
30730;BME280;17476;48.458;7.928;2022-08-01T04:28:43;100032.91;;;20.79;62.25
30730;BME280;17476;48.458;7.928;2022-08-01T04:31:10;100039.88;;;20.80;63.38
30730;BME280;17476;48.458;7.928;2022-08-01T04:33:45;100040.78;;;20.74;63.90
30730;BME280;17476;48.458;7.928;2022-08-01T04:36:14;100036.56;;;20.66;63.65
30730;BME280;17476;48.458;7.928;2022-08-01T04:38:45;100039.22;;;20.66;62.95
30730;BME280;17476;48.458;7.928;2022-08-01T04:41:13;100037.72;;;21.00;61.50
30730;BME280;17476;48.458;7.928;2022-08-01T04:43:52;100037.81;;;21.17;61.04
30730;BME280;17476;48.458;7.928;2022-08-01T04:46:20;100047.19;;;21.19;60.88
30730;BME280;17476;48.458;7.928;2022-08-01T04:48:48;100047.31;;;21.24;60.83
30730;BME280;17476;48.458;7.928;2022-08-01T04:51:17;100043.50;;;21.09;62.14
30730;BME280;17476;48.458;7.928;2022-08-01T04:53:48;100043.59;;;21.02;62.93
30730;BME280;17476;48.458;7.928;2022-08-01T04:56:14;100041.84;;;20.96;62.23
30730;BME280;17476;48.458;7.928;2022-08-01T04:58:42;100036.78;;;20.94;62.40
30730;BME280;17476;48.458;7.928;2022-08-01T05:01:08;100035.81;;;20.89;63.37
30730;BME280;17476;48.458;7.928;2022-08-01T05:03:35;100039.91;;;21.03;62.40
30730;BME280;17476;48.458;7.928;2022-08-01T05:06:01;100044.88;;;21.11;62.81
30730;BME280;17476;48.458;7.928;2022-08-01T05:08:26;100040.03;;;21.08;62.72
30730;BME280;17476;48.458;7.928;2022-08-01T05:10:52;100041.41;;;21.22;62.23
30730;BME280;17476;48.458;7.928;2022-08-01T05:13:19;100036.47;;;21.38;61.30
30730;BME280;17476;48.458;7.928;2022-08-01T05:15:45;100035.31;;;21.57;60.63
30730;BME280;17476;48.458;7.928;2022-08-01T05:18:11;100042.22;;;21.70;60.56
30730;BME280;17476;48.458;7.928;2022-08-01T05:20:37;100039.56;;;21.70;60.56
30730;BME280;17476;48.458;7.928;2022-08-01T05:23:04;100043.72;;;21.66;60.63
30730;BME280;17476;48.458;7.928;2022-08-01T05:25:30;100040.38;;;21.82;59.68
30730;BME280;17476;48.458;7.928;2022-08-01T05:27:56;100042.97;;;21.94;59.23
30730;BME280;17476;48.458;7.928;2022-08-01T05:30:22;100045.09;;;21.92;59.13
30730;BME280;17476;48.458;7.928;2022-08-01T05:32:48;100046.44;;;21.94;58.96
30730;BME280;17476;48.458;7.928;2022-08-01T05:35:14;100047.38;;;22.00;58.74
30730;BME280;17476;48.458;7.928;2022-08-01T05:37:40;100040.78;;;22.02;58.94
30730;BME280;17476;48.458;7.928;2022-08-01T05:40:06;100038.09;;;22.14;58.37
30730;BME280;17476;48.458;7.928;2022-08-01T05:42:35;100050.38;;;22.15;58.89
30730;BME280;17476;48.458;7.928;2022-08-01T05:45:01;100036.09;;;22.21;58.80
30730;BME280;17476;48.458;7.928;2022-08-01T05:47:27;100046.75;;;22.21;58.67
30730;BME280;17476;48.458;7.928;2022-08-01T05:49:53;100043.38;;;22.26;59.33
30730;BME280;17476;48.458;7.928;2022-08-01T05:52:19;100041.06;;;22.29;58.82
30730;BME280;17476;48.458;7.928;2022-08-01T05:54:45;100046.13;;;22.43;58.25
30730;BME280;17476;48.458;7.928;2022-08-01T05:57:11;100040.00;;;22.59;58.26
30730;BME280;17476;48.458;7.928;2022-08-01T05:59:36;100043.44;;;22.88;56.99
30730;BME280;17476;48.458;7.928;2022-08-01T06:02:02;100046.59;;;23.02;56.19
30730;BME280;17476;48.458;7.928;2022-08-01T06:04:28;100041.84;;;23.21;56.33
30730;BME280;17476;48.458;7.928;2022-08-01T06:06:54;100036.81;;;23.24;55.76
30730;BME280;17476;48.458;7.928;2022-08-01T06:09:20;100038.81;;;23.34;55.84
30730;BME280;17476;48.458;7.928;2022-08-01T06:11:46;100040.41;;;23.52;55.09
30730;BME280;17476;48.458;7.928;2022-08-01T06:14:12;100040.75;;;23.77;55.00
30730;BME280;17476;48.458;7.928;2022-08-01T06:16:37;100038.50;;;23.86;55.30
30730;BME280;17476;48.458;7.928;2022-08-01T06:19:03;100046.06;;;23.94;55.28
30730;BME280;17476;48.458;7.928;2022-08-01T06:21:29;100043.50;;;24.04;54.53
30730;BME280;17476;48.458;7.928;2022-08-01T06:23:55;100045.41;;;24.31;54.23
30730;BME280;17476;48.458;7.928;2022-08-01T06:26:21;100034.25;;;24.34;54.08
30730;BME280;17476;48.458;7.928;2022-08-01T06:28:47;100036.81;;;24.50;53.96
30730;BME280;17476;48.458;7.928;2022-08-01T06:31:12;100042.09;;;24.72;53.39
30730;BME280;17476;48.458;7.928;2022-08-01T06:33:40;100035.47;;;25.07;52.18
30730;BME280;17476;48.458;7.928;2022-08-01T06:36:06;100037.06;;;25.50;51.06
30730;BME280;17476;48.458;7.928;2022-08-01T06:38:32;100038.38;;;25.90;50.10
30730;BME280;17476;48.458;7.928;2022-08-01T06:40:58;100040.44;;;25.73;50.20
30730;BME280;17476;48.458;7.928;2022-08-01T06:43:24;100036.72;;;25.84;49.92
30730;BME280;17476;48.458;7.928;2022-08-01T06:45:49;100028.97;;;25.88;50.00
30730;BME280;17476;48.458;7.928;2022-08-01T06:48:15;100031.97;;;26.06;49.62
30730;BME280;17476;48.458;7.928;2022-08-01T06:50:41;100033.63;;;26.28;49.49
30730;BME280;17476;48.458;7.928;2022-08-01T06:53:07;100044.72;;;26.62;48.75
30730;BME280;17476;48.458;7.928;2022-08-01T06:55:33;100040.19;;;26.73;47.82
30730;BME280;17476;48.458;7.928;2022-08-01T06:57:59;100044.47;;;26.94;48.14
30730;BME280;17476;48.458;7.928;2022-08-01T07:00:26;100040.47;;;27.12;47.14
30730;BME280;17476;48.458;7.928;2022-08-01T07:02:58;100039.63;;;27.32;46.70
30730;BME280;17476;48.458;7.928;2022-08-01T07:05:25;100043.13;;;27.22;46.90
30730;BME280;17476;48.458;7.928;2022-08-01T07:07:51;100042.28;;;27.52;46.20
30730;BME280;17476;48.458;7.928;2022-08-01T07:10:17;100039.88;;;27.35;45.78
30730;BME280;17476;48.458;7.928;2022-08-01T07:12:43;100039.81;;;27.61;47.08
30730;BME280;17476;48.458;7.928;2022-08-01T07:15:11;100034.44;;;27.61;45.61
30730;BME280;17476;48.458;7.928;2022-08-01T07:17:41;100029.03;;;27.76;45.41
30730;BME280;17476;48.458;7.928;2022-08-01T07:20:10;100033.50;;;28.01;45.43
30730;BME280;17476;48.458;7.928;2022-08-01T07:22:38;100032.44;;;28.02;45.12
30730;BME280;17476;48.458;7.928;2022-08-01T07:25:05;100034.09;;;28.42;44.84
30730;BME280;17476;48.458;7.928;2022-08-01T07:27:32;100038.63;;;28.86;44.24
30730;BME280;17476;48.458;7.928;2022-08-01T07:29:58;100036.78;;;29.40;43.68
30730;BME280;17476;48.458;7.928;2022-08-01T07:32:24;100032.94;;;29.75;42.00
30730;BME280;17476;48.458;7.928;2022-08-01T07:34:50;100038.78;;;29.58;41.92
30730;BME280;17476;48.458;7.928;2022-08-01T07:37:16;100037.72;;;29.30;42.26
30730;BME280;17476;48.458;7.928;2022-08-01T07:39:42;100038.63;;;28.52;43.65
30730;BME280;17476;48.458;7.928;2022-08-01T07:42:08;100038.47;;;28.33;44.67
30730;BME280;17476;48.458;7.928;2022-08-01T07:44:35;100027.72;;;28.72;44.58
30730;BME280;17476;48.458;7.928;2022-08-01T07:47:01;100026.22;;;29.19;43.47
30730;BME280;17476;48.458;7.928;2022-08-01T07:49:27;100024.41;;;29.38;42.71
30730;BME280;17476;48.458;7.928;2022-08-01T07:51:53;100022.25;;;29.41;43.21
30730;BME280;17476;48.458;7.928;2022-08-01T07:54:19;100026.84;;;30.07;42.65
30730;BME280;17476;48.458;7.928;2022-08-01T07:56:45;100030.50;;;30.73;41.20
30730;BME280;17476;48.458;7.928;2022-08-01T07:59:11;100020.75;;;31.23;40.14
30730;BME280;17476;48.458;7.928;2022-08-01T08:01:37;100018.94;;;31.73;39.74
30730;BME280;17476;48.458;7.928;2022-08-01T08:04:03;100018.03;;;31.92;37.70
30730;BME280;17476;48.458;7.928;2022-08-01T08:06:29;100020.38;;;32.21;37.78
30730;BME280;17476;48.458;7.928;2022-08-01T08:08:55;100021.22;;;32.44;36.79
30730;BME280;17476;48.458;7.928;2022-08-01T08:11:20;100012.06;;;32.53;37.50
30730;BME280;17476;48.458;7.928;2022-08-01T08:13:46;100012.03;;;32.98;36.49
30730;BME280;17476;48.458;7.928;2022-08-01T08:16:12;100011.69;;;33.31;35.53
30730;BME280;17476;48.458;7.928;2022-08-01T08:18:38;100017.03;;;33.45;35.66
30730;BME280;17476;48.458;7.928;2022-08-01T08:21:04;100004.34;;;33.80;35.26
30730;BME280;17476;48.458;7.928;2022-08-01T08:23:30;100008.91;;;34.10;35.44
30730;BME280;17476;48.458;7.928;2022-08-01T08:26:14;100006.16;;;34.54;33.58
30730;BME280;17476;48.458;7.928;2022-08-01T08:28:40;100000.09;;;34.65;32.84
30730;BME280;17476;48.458;7.928;2022-08-01T08:31:07;99998.88;;;35.01;33.95
30730;BME280;17476;48.458;7.928;2022-08-01T08:33:33;100007.00;;;35.57;32.38
30730;BME280;17476;48.458;7.928;2022-08-01T08:35:59;99993.69;;;35.85;31.76
30730;BME280;17476;48.458;7.928;2022-08-01T08:38:25;100000.03;;;35.97;31.07
30730;BME280;17476;48.458;7.928;2022-08-01T08:40:53;99997.34;;;36.09;30.61
30730;BME280;17476;48.458;7.928;2022-08-01T08:43:19;99995.41;;;36.10;31.44
30730;BME280;17476;48.458;7.928;2022-08-01T08:45:46;99994.94;;;36.50;31.15
30730;BME280;17476;48.458;7.928;2022-08-01T08:48:13;99997.78;;;36.53;30.87
30730;BME280;17476;48.458;7.928;2022-08-01T08:50:41;99991.72;;;36.81;30.35
30730;BME280;17476;48.458;7.928;2022-08-01T08:53:10;99985.66;;;37.21;29.91
30730;BME280;17476;48.458;7.928;2022-08-01T08:55:37;99993.53;;;37.34;29.38
30730;BME280;17476;48.458;7.928;2022-08-01T08:58:04;99984.84;;;37.57;29.08
30730;BME280;17476;48.458;7.928;2022-08-01T09:00:32;99982.25;;;37.60;28.49
30730;BME280;17476;48.458;7.928;2022-08-01T09:02:59;99993.50;;;37.59;28.18
30730;BME280;17476;48.458;7.928;2022-08-01T09:05:25;99985.88;;;37.52;29.28
30730;BME280;17476;48.458;7.928;2022-08-01T09:07:52;99978.84;;;38.04;28.71
30730;BME280;17476;48.458;7.928;2022-08-01T09:10:20;99981.44;;;38.12;28.03
30730;BME280;17476;48.458;7.928;2022-08-01T09:13:09;99985.63;;;38.66;27.69
30730;BME280;17476;48.458;7.928;2022-08-01T09:15:51;99980.91;;;39.10;27.23
30730;BME280;17476;48.458;7.928;2022-08-01T09:18:38;99980.75;;;39.03;26.86
30730;BME280;17476;48.458;7.928;2022-08-01T09:23:58;99988.50;;;39.01;26.08
30730;BME280;17476;48.458;7.928;2022-08-01T09:26:37;99990.44;;;39.00;26.62
30730;BME280;17476;48.458;7.928;2022-08-01T09:29:06;99992.56;;;38.47;26.47
30730;BME280;17476;48.458;7.928;2022-08-01T09:31:42;99990.56;;;38.04;26.72
30730;BME280;17476;48.458;7.928;2022-08-01T09:34:08;99989.72;;;38.28;27.55
30730;BME280;17476;48.458;7.928;2022-08-01T09:36:51;99995.56;;;38.70;27.42
30730;BME280;17476;48.458;7.928;2022-08-01T09:39:20;99990.19;;;39.37;27.44
30730;BME280;17476;48.458;7.928;2022-08-01T09:41:48;99991.13;;;39.61;25.31
30730;BME280;17476;48.458;7.928;2022-08-01T09:44:17;99983.22;;;39.75;25.75
30730;BME280;17476;48.458;7.928;2022-08-01T09:46:53;99984.28;;;40.05;25.90
30730;BME280;17476;48.458;7.928;2022-08-01T09:49:31;99984.16;;;40.60;25.63
30730;BME280;17476;48.458;7.928;2022-08-01T09:54:36;99976.41;;;40.88;24.69
30730;BME280;17476;48.458;7.928;2022-08-01T09:57:15;99981.16;;;41.14;24.39
30730;BME280;17476;48.458;7.928;2022-08-01T09:59:48;99977.59;;;41.37;22.94
30730;BME280;17476;48.458;7.928;2022-08-01T10:02:35;99979.91;;;41.35;24.40
30730;BME280;17476;48.458;7.928;2022-08-01T10:05:04;99969.69;;;41.88;23.45
30730;BME280;17476;48.458;7.928;2022-08-01T10:07:31;99972.63;;;41.46;23.95
30730;BME280;17476;48.458;7.928;2022-08-01T10:10:13;99962.53;;;41.01;23.10
30730;BME280;17476;48.458;7.928;2022-08-01T10:12:41;99968.25;;;40.07;25.86
30730;BME280;17476;48.458;7.928;2022-08-01T10:15:08;99963.72;;;40.57;24.95
30730;BME280;17476;48.458;7.928;2022-08-01T10:17:34;99956.09;;;40.47;24.63
30730;BME280;17476;48.458;7.928;2022-08-01T10:20:03;99955.44;;;39.57;25.08
30730;BME280;17476;48.458;7.928;2022-08-01T10:22:31;99954.91;;;39.51;26.33
30730;BME280;17476;48.458;7.928;2022-08-01T10:24:58;99950.06;;;39.99;24.91
30730;BME280;17476;48.458;7.928;2022-08-01T10:27:30;99942.34;;;40.24;26.24
30730;BME280;17476;48.458;7.928;2022-08-01T10:29:59;99938.47;;;40.25;25.39
30730;BME280;17476;48.458;7.928;2022-08-01T10:32:30;99930.03;;;40.57;24.38
30730;BME280;17476;48.458;7.928;2022-08-01T10:34:58;99940.03;;;39.01;25.05
30730;BME280;17476;48.458;7.928;2022-08-01T10:37:24;99933.94;;;38.61;26.38
30730;BME280;17476;48.458;7.928;2022-08-01T10:39:54;99935.06;;;39.39;26.28
30730;BME280;17476;48.458;7.928;2022-08-01T10:42:21;99940.47;;;40.28;25.58
30730;BME280;17476;48.458;7.928;2022-08-01T10:44:47;99940.28;;;40.41;23.99
30730;BME280;17476;48.458;7.928;2022-08-01T10:53:09;99932.56;;;39.84;25.41
30730;BME280;17476;48.458;7.928;2022-08-01T10:58:12;99933.63;;;39.61;25.40
30730;BME280;17476;48.458;7.928;2022-08-01T11:00:38;99931.81;;;39.88;24.58
30730;BME280;17476;48.458;7.928;2022-08-01T11:03:05;99929.41;;;38.96;25.46
30730;BME280;17476;48.458;7.928;2022-08-01T11:05:34;99926.19;;;38.94;26.54
30730;BME280;17476;48.458;7.928;2022-08-01T11:08:22;99911.34;;;39.27;24.07
30730;BME280;17476;48.458;7.928;2022-08-01T11:10:48;99919.66;;;39.15;25.34
30730;BME280;17476;48.458;7.928;2022-08-01T11:13:14;99918.22;;;39.72;26.49
30730;BME280;17476;48.458;7.928;2022-08-01T11:15:41;99914.44;;;40.19;24.89
30730;BME280;17476;48.458;7.928;2022-08-01T11:18:30;99914.16;;;40.70;23.81
30730;BME280;17476;48.458;7.928;2022-08-01T11:21:02;99909.50;;;40.93;23.75
30730;BME280;17476;48.458;7.928;2022-08-01T11:23:29;99897.56;;;41.35;23.66
30730;BME280;17476;48.458;7.928;2022-08-01T11:28:28;99904.91;;;41.91;23.38
30730;BME280;17476;48.458;7.928;2022-08-01T11:38:44;99881.41;;;42.78;21.37
30730;BME280;17476;48.458;7.928;2022-08-01T11:46:59;99877.13;;;42.88;21.66
30730;BME280;17476;48.458;7.928;2022-08-01T11:52:06;99883.09;;;43.74;20.67
30730;BME280;17476;48.458;7.928;2022-08-01T11:54:43;99885.63;;;43.27;20.89
30730;BME280;17476;48.458;7.928;2022-08-01T11:57:26;99877.66;;;43.08;21.54
30730;BME280;17476;48.458;7.928;2022-08-01T11:59:55;99875.22;;;43.65;20.96
30730;BME280;17476;48.458;7.928;2022-08-01T12:02:25;99869.84;;;44.26;20.41
30730;BME280;17476;48.458;7.928;2022-08-01T12:05:06;99881.66;;;44.55;20.17
30730;BME280;17476;48.458;7.928;2022-08-01T12:07:36;99873.75;;;44.92;19.77
30730;BME280;17476;48.458;7.928;2022-08-01T12:10:07;99874.94;;;44.84;19.32
30730;BME280;17476;48.458;7.928;2022-08-01T12:12:36;99856.84;;;44.55;20.41
30730;BME280;17476;48.458;7.928;2022-08-01T12:15:08;99864.19;;;45.29;19.63
30730;BME280;17476;48.458;7.928;2022-08-01T12:17:41;99874.34;;;45.61;18.50
30730;BME280;17476;48.458;7.928;2022-08-01T12:20:13;99863.56;;;45.84;20.00
30730;BME280;17476;48.458;7.928;2022-08-01T12:22:40;99870.56;;;45.15;19.89
30730;BME280;17476;48.458;7.928;2022-08-01T12:25:13;99869.00;;;45.04;20.29
30730;BME280;17476;48.458;7.928;2022-08-01T12:27:43;99870.63;;;44.55;20.44
30730;BME280;17476;48.458;7.928;2022-08-01T12:30:15;99867.84;;;43.98;21.39
30730;BME280;17476;48.458;7.928;2022-08-01T12:32:46;99861.66;;;43.35;21.53
30730;BME280;17476;48.458;7.928;2022-08-01T12:35:25;99865.56;;;43.27;21.93
30730;BME280;17476;48.458;7.928;2022-08-01T12:37:57;99869.72;;;43.76;21.78
30730;BME280;17476;48.458;7.928;2022-08-01T12:40:30;99867.00;;;43.79;21.15
30730;BME280;17476;48.458;7.928;2022-08-01T12:43:06;99876.16;;;43.21;22.04
30730;BME280;17476;48.458;7.928;2022-08-01T12:45:39;99868.13;;;43.75;21.65
30730;BME280;17476;48.458;7.928;2022-08-01T12:48:14;99874.41;;;43.68;21.47
30730;BME280;17476;48.458;7.928;2022-08-01T12:50:46;99866.25;;;44.00;21.21
30730;BME280;17476;48.458;7.928;2022-08-01T12:53:13;99860.75;;;44.04;20.92
30730;BME280;17476;48.458;7.928;2022-08-01T12:55:51;99870.06;;;43.60;21.75
30730;BME280;17476;48.458;7.928;2022-08-01T12:58:19;99865.75;;;43.66;21.50
30730;BME280;17476;48.458;7.928;2022-08-01T13:00:50;99864.25;;;43.86;21.39
30730;BME280;17476;48.458;7.928;2022-08-01T13:03:27;99854.81;;;43.95;20.95
30730;BME280;17476;48.458;7.928;2022-08-01T13:05:55;99851.75;;;44.18;21.01
30730;BME280;17476;48.458;7.928;2022-08-01T13:11:18;99852.91;;;44.42;20.60
30730;BME280;17476;48.458;7.928;2022-08-01T13:13:50;99858.41;;;44.13;20.97
30730;BME280;17476;48.458;7.928;2022-08-01T13:16:23;99861.34;;;43.40;21.41
30730;BME280;17476;48.458;7.928;2022-08-01T13:18:52;99853.41;;;43.31;20.80
30730;BME280;17476;48.458;7.928;2022-08-01T13:21:21;99848.03;;;43.56;21.48
30730;BME280;17476;48.458;7.928;2022-08-01T13:24:02;99845.38;;;43.96;21.43
30730;BME280;17476;48.458;7.928;2022-08-01T13:26:42;99844.25;;;44.25;20.55
30730;BME280;17476;48.458;7.928;2022-08-01T13:29:12;99852.84;;;43.88;20.50
30730;BME280;17476;48.458;7.928;2022-08-01T13:31:39;99844.28;;;43.10;20.89
30730;BME280;17476;48.458;7.928;2022-08-01T13:34:05;99843.69;;;42.83;21.84
30730;BME280;17476;48.458;7.928;2022-08-01T13:36:32;99845.53;;;42.20;21.81
30730;BME280;17476;48.458;7.928;2022-08-01T13:38:58;99836.88;;;41.77;22.54
30730;BME280;17476;48.458;7.928;2022-08-01T13:41:51;99843.06;;;41.10;23.24
30730;BME280;17476;48.458;7.928;2022-08-01T13:44:30;99843.72;;;40.28;24.41
30730;BME280;17476;48.458;7.928;2022-08-01T13:47:04;99850.38;;;40.04;23.96
30730;BME280;17476;48.458;7.928;2022-08-01T13:49:31;99847.72;;;39.69;24.43
30730;BME280;17476;48.458;7.928;2022-08-01T13:51:57;99850.72;;;39.44;25.07
30730;BME280;17476;48.458;7.928;2022-08-01T13:54:23;99849.31;;;39.15;25.98